Time;durP1;ratioP1;P1;durP2;ratioP2;P2;SDS_P1;SDS_P2;PMS_P1;PMS_P2;Temp;Humidity;BMP_temperature;BMP_pressure;BME280_temperature;BME280_humidity;BME280_pressure;Samples;Min_cycle;Max_cycle;Signal;HPM_P1;HPM_P2
2023/05/16 00:00:57;;;;;;;;;;;;;;;13.68;38.32;100038.00;4968116;27;98435;-65
2023/05/16 00:03:23;;;;;;;;;;;;;;;13.69;38.11;100033.41;4947974;27;98250;-65
2023/05/16 00:05:50;;;;;;;;;;;;;;;13.70;38.64;100046.63;4960739;27;98126;-65
2023/05/16 00:08:16;;;;;;;;;;;;;;;13.69;38.61;100042.31;4944475;28;99141;-69
2023/05/16 00:10:42;;;;;;;;;;;;;;;13.71;38.31;100045.53;4961431;27;98913;-65
2023/05/16 00:13:09;;;;;;;;;;;;;;;13.70;38.16;100046.63;4975707;27;98008;-65
2023/05/16 00:15:37;;;;;;;;;;;;;;;13.68;38.47;100035.31;4945651;27;98451;-65
2023/05/16 00:18:03;;;;;;;;;;;;;;;13.69;38.55;100038.81;4960417;27;98137;-65
2023/05/16 00:20:30;;;;;;;;;;;;;;;13.68;38.27;100051.56;4946520;27;99348;-65
2023/05/16 00:22:59;;;;;;;;;;;;;;;13.68;38.29;100053.47;4947404;27;98042;-69
2023/05/16 00:25:27;;;;;;;;;;;;;;;13.66;38.38;100051.03;4945573;27;98174;-69
2023/05/16 00:27:53;;;;;;;;;;;;;;;13.66;38.57;100044.81;4942502;27;98090;-69
2023/05/16 00:30:19;;;;;;;;;;;;;;;13.64;38.52;100052.44;4930826;27;100323;-69
2023/05/16 00:32:46;;;;;;;;;;;;;;;13.64;38.41;100052.44;4948756;27;98823;-65
2023/05/16 00:35:12;;;;;;;;;;;;;;;13.62;38.56;100058.16;4947275;27;99979;-66
2023/05/16 00:37:38;;;;;;;;;;;;;;;13.62;38.34;100057.34;4941838;27;100071;-69
2023/05/16 00:40:05;;;;;;;;;;;;;;;13.63;38.36;100053.53;4963196;27;97805;-65
2023/05/16 00:42:31;;;;;;;;;;;;;;;13.62;38.53;100055.44;4944707;27;98601;-69
2023/05/16 00:44:57;;;;;;;;;;;;;;;13.61;38.35;100050.31;4959834;28;98293;-66
2023/05/16 00:47:23;;;;;;;;;;;;;;;13.60;38.30;100057.66;4943159;27;123228;-65
2023/05/16 00:49:50;;;;;;;;;;;;;;;13.58;38.43;100057.13;4949574;27;98234;-69
2023/05/16 00:52:16;;;;;;;;;;;;;;;13.56;38.67;100070.19;4949026;27;97969;-69
2023/05/16 00:54:42;;;;;;;;;;;;;;;13.56;38.62;100072.06;4948919;28;98182;-69
2023/05/16 00:57:08;;;;;;;;;;;;;;;13.54;38.38;100072.38;4947094;28;100276;-65
2023/05/16 00:59:34;;;;;;;;;;;;;;;13.54;38.69;100085.09;4948137;27;98203;-68
2023/05/16 01:02:01;;;;;;;;;;;;;;;13.53;38.48;100084.31;4949564;28;97908;-69
2023/05/16 01:04:27;;;;;;;;;;;;;;;13.50;38.53;100074.06;4949482;27;98784;-69
2023/05/16 01:06:55;;;;;;;;;;;;;;;13.48;38.50;100079.78;4943157;27;98193;-69
2023/05/16 01:09:22;;;;;;;;;;;;;;;13.47;38.69;100086.28;4953632;27;98228;-65
2023/05/16 01:11:53;;;;;;;;;;;;;;;13.46;38.67;100090.09;4964778;27;98325;-69
2023/05/16 01:14:30;;;;;;;;;;;;;;;13.47;38.49;100093.59;4978503;27;98532;-65
2023/05/16 01:17:11;;;;;;;;;;;;;;;13.45;38.51;100101.22;4965830;28;98040;-69
2023/05/16 01:20:22;;;;;;;;;;;;;;;13.43;38.69;100098.78;4954152;28;97962;-65
2023/05/16 01:22:57;;;;;;;;;;;;;;;13.43;38.69;100095.28;4941367;27;98235;-65
2023/05/16 01:25:55;;;;;;;;;;;;;;;13.40;38.76;100095.88;4966833;27;98176;-65
2023/05/16 01:28:22;;;;;;;;;;;;;;;13.39;38.64;100105.91;4961179;27;97943;-66
2023/05/16 01:30:49;;;;;;;;;;;;;;;13.38;38.77;100100.78;4943139;27;98175;-69
2023/05/16 01:33:16;;;;;;;;;;;;;;;13.38;38.57;100109.72;4943052;27;99636;-65
2023/05/16 01:36:10;;;;;;;;;;;;;;;13.38;38.60;100111.63;4948616;28;98068;-69
2023/05/16 01:38:44;;;;;;;;;;;;;;;13.36;38.68;100125.47;4943920;27;99410;-68
2023/05/16 01:41:15;;;;;;;;;;;;;;;13.36;38.56;100121.91;4948387;27;98119;-69
2023/05/16 01:43:47;;;;;;;;;;;;;;;13.33;38.75;100128.75;4967158;27;98005;-65
2023/05/16 01:46:20;;;;;;;;;;;;;;;13.31;38.64;100128.22;4946522;27;98229;-69
2023/05/16 01:48:57;;;;;;;;;;;;;;;13.30;38.64;100131.22;4947478;27;110098;-65
2023/05/16 01:51:26;;;;;;;;;;;;;;;13.29;38.71;100126.94;4942168;27;100120;-69
2023/05/16 01:53:52;;;;;;;;;;;;;;;13.25;38.78;100132.91;4951633;27;98395;-65
2023/05/16 01:56:18;;;;;;;;;;;;;;;13.23;38.67;100135.09;4942038;27;98204;-69
2023/05/16 01:58:45;;;;;;;;;;;;;;;13.21;38.76;100131.88;4947129;28;99706;-69
2023/05/16 02:01:12;;;;;;;;;;;;;;;13.17;38.70;100136.25;4923071;28;98150;-67
2023/05/16 02:03:38;;;;;;;;;;;;;;;13.13;38.57;100140.63;4942718;27;97915;-69
2023/05/16 02:06:04;;;;;;;;;;;;;;;13.09;38.88;100145.03;4964934;27;101326;-65
2023/05/16 02:08:31;;;;;;;;;;;;;;;13.06;38.67;100145.59;4941343;27;99913;-69
2023/05/16 02:10:57;;;;;;;;;;;;;;;13.03;38.83;100146.19;4946494;28;98310;-65
2023/05/16 02:13:23;;;;;;;;;;;;;;;12.99;38.80;100143.25;4959477;27;98098;-69
2023/05/16 02:15:50;;;;;;;;;;;;;;;12.96;38.83;100146.53;4930283;28;98186;-69
2023/05/16 02:18:17;;;;;;;;;;;;;;;12.93;38.52;100160.66;4942664;27;99777;-69
2023/05/16 02:20:43;;;;;;;;;;;;;;;12.90;38.92;100157.72;4945005;27;98413;-68
2023/05/16 02:23:10;;;;;;;;;;;;;;;12.89;38.93;100156.09;4945816;27;98097;-69
2023/05/16 02:25:36;;;;;;;;;;;;;;;12.87;38.96;100161.00;4946690;27;97981;-69
2023/05/16 02:28:02;;;;;;;;;;;;;;;12.86;38.75;100164.81;4949267;27;99635;-69
2023/05/16 02:30:29;;;;;;;;;;;;;;;12.85;38.78;100161.31;4963973;27;97758;-69
2023/05/16 02:32:55;;;;;;;;;;;;;;;12.85;38.86;100161.31;4929913;27;98131;-64
2023/05/16 02:35:21;;;;;;;;;;;;;;;12.83;38.78;100158.06;4941335;27;98456;-69
2023/05/16 02:37:47;;;;;;;;;;;;;;;12.83;38.69;100165.38;4945121;27;98144;-65
2023/05/16 02:40:14;;;;;;;;;;;;;;;12.80;38.81;100157.84;4943324;28;97960;-65
2023/05/16 02:42:40;;;;;;;;;;;;;;;12.80;38.81;100164.06;4964520;27;98204;-65
2023/05/16 02:45:06;;;;;;;;;;;;;;;12.78;38.90;100156.25;4960088;28;126673;-69
2023/05/16 02:47:32;;;;;;;;;;;;;;;12.79;38.85;100162.44;4944168;27;97923;-68
2023/05/16 02:49:58;;;;;;;;;;;;;;;12.77;38.79;100162.75;4966594;27;98066;-65
2023/05/16 02:52:25;;;;;;;;;;;;;;;12.76;38.92;100158.41;4928712;27;99037;-65
2023/05/16 02:54:51;;;;;;;;;;;;;;;12.74;38.79;100162.50;4947140;27;98045;-69
2023/05/16 02:57:17;;;;;;;;;;;;;;;12.72;38.89;100164.69;4931034;27;97943;-66
2023/05/16 02:59:43;;;;;;;;;;;;;;;12.70;38.89;100172.31;4928482;27;107685;-64
2023/05/16 03:02:10;;;;;;;;;;;;;;;12.67;38.77;100172.88;4943284;27;98208;-65
2023/05/16 03:04:36;;;;;;;;;;;;;;;12.64;38.78;100176.16;4945396;28;98328;-69
2023/05/16 03:07:02;;;;;;;;;;;;;;;12.63;38.93;100182.66;4945769;27;99725;-69
2023/05/16 03:09:28;;;;;;;;;;;;;;;12.63;38.90;100179.94;4957100;28;98490;-65
2023/05/16 03:11:54;;;;;;;;;;;;;;;12.60;38.92;100192.13;4942497;27;98420;-69
2023/05/16 03:14:20;;;;;;;;;;;;;;;12.58;38.88;100193.53;4963029;28;98080;-69
2023/05/16 03:16:47;;;;;;;;;;;;;;;12.58;38.76;100196.22;4948276;27;98466;-65
2023/05/16 03:19:13;;;;;;;;;;;;;;;12.57;38.88;100200.00;4946078;27;98089;-65
2023/05/16 03:21:39;;;;;;;;;;;;;;;12.55;38.96;100207.63;4946240;27;98060;-69
2023/05/16 03:24:06;;;;;;;;;;;;;;;12.52;39.05;100211.69;4941447;27;97978;-64
2023/05/16 03:26:32;;;;;;;;;;;;;;;12.49;38.94;100206.84;4947271;27;99534;-66
2023/05/16 03:28:58;;;;;;;;;;;;;;;12.48;38.97;100213.34;4947617;27;99093;-65
2023/05/16 03:31:27;;;;;;;;;;;;;;;12.48;38.97;100227.66;4945943;28;98163;-66
2023/05/16 03:33:53;;;;;;;;;;;;;;;12.48;39.03;100221.47;4948720;27;98138;-65
2023/05/16 03:36:21;;;;;;;;;;;;;;;12.48;39.01;100233.06;4962555;27;98051;-66
2023/05/16 03:38:47;;;;;;;;;;;;;;;12.46;38.93;100226.38;4928130;27;98366;-66
2023/05/16 03:41:13;;;;;;;;;;;;;;;12.48;38.97;100235.78;4945861;27;98247;-66
2023/05/16 03:43:40;;;;;;;;;;;;;;;12.48;38.93;100234.97;4947406;27;98176;-70
2023/05/16 03:46:06;;;;;;;;;;;;;;;12.48;39.00;100233.06;4925507;27;97938;-66
2023/05/16 03:48:32;;;;;;;;;;;;;;;12.49;38.89;100247.41;4945459;28;98270;-69
2023/05/16 03:50:58;;;;;;;;;;;;;;;12.49;38.87;100242.00;4950193;27;98089;-69
2023/05/16 03:53:24;;;;;;;;;;;;;;;12.47;38.77;100247.69;4929250;28;130235;-66
2023/05/16 03:55:51;;;;;;;;;;;;;;;12.47;38.92;100255.81;4956298;28;97805;-70
2023/05/16 03:58:17;;;;;;;;;;;;;;;12.47;38.97;100261.22;4944336;27;99602;-69
2023/05/16 04:00:45;;;;;;;;;;;;;;;12.48;38.92;100272.81;4929323;27;97944;-65
2023/05/16 04:03:12;;;;;;;;;;;;;;;12.49;38.96;100271.72;4941976;27;98758;-66
2023/05/16 04:05:38;;;;;;;;;;;;;;;12.49;38.81;100274.44;4940730;27;98456;-66
2023/05/16 04:08:04;;;;;;;;;;;;;;;12.48;38.99;100283.63;4962732;28;97965;-66
2023/05/16 04:10:31;;;;;;;;;;;;;;;12.48;38.74;100280.94;4947704;27;99310;-70
2023/05/16 04:12:57;;;;;;;;;;;;;;;12.49;38.95;100286.03;4949628;27;98761;-66
2023/05/16 04:15:23;;;;;;;;;;;;;;;12.53;38.74;100281.69;4922655;28;98105;-66
2023/05/16 04:17:49;;;;;;;;;;;;;;;12.58;38.83;100291.66;4939031;28;99312;-66
2023/05/16 04:20:15;;;;;;;;;;;;;;;12.63;38.64;100290.81;4946823;28;99413;-66
2023/05/16 04:22:42;;;;;;;;;;;;;;;12.69;38.83;100295.06;4918865;28;102953;-65
2023/05/16 04:25:10;;;;;;;;;;;;;;;12.75;38.75;100302.06;4910106;28;98154;-70
2023/05/16 04:27:37;;;;;;;;;;;;;;;12.80;38.82;100302.00;4915305;28;97970;-65
2023/05/16 04:30:03;;;;;;;;;;;;;;;12.82;38.62;100310.63;4910843;28;97946;-65
2023/05/16 04:32:30;;;;;;;;;;;;;;;12.85;38.75;100314.66;4943462;28;98228;-69
2023/05/16 04:34:56;;;;;;;;;;;;;;;12.87;38.55;100312.47;4907815;28;97911;-69
2023/05/16 04:37:22;;;;;;;;;;;;;;;12.91;38.80;100308.09;4913797;28;99328;-65
2023/05/16 04:39:48;;;;;;;;;;;;;;;12.96;38.60;100308.84;4912645;28;97968;-69
2023/05/16 04:42:15;;;;;;;;;;;;;;;13.04;38.54;100307.41;4924642;28;100400;-70
2023/05/16 04:44:41;;;;;;;;;;;;;;;13.13;38.51;100319.25;4911772;28;98393;-70
2023/05/16 04:47:07;;;;;;;;;;;;;;;13.21;38.36;100310.50;4925233;28;98559;-66
2023/05/16 04:49:33;;;;;;;;;;;;;;;13.32;38.32;100324.72;4903880;28;98257;-69
2023/05/16 04:51:59;;;;;;;;;;;;;;;13.42;38.42;100323.81;4908828;28;99537;-69
2023/05/16 04:54:25;;;;;;;;;;;;;;;13.47;38.43;100327.25;4927036;28;98894;-65
2023/05/16 04:56:51;;;;;;;;;;;;;;;13.45;38.31;100337.56;4940421;28;98416;-65
2023/05/16 04:59:17;;;;;;;;;;;;;;;13.44;38.16;100343.25;4922351;28;98123;-68
2023/05/16 05:01:44;;;;;;;;;;;;;;;13.40;38.34;100356.59;4922495;28;98678;-69
2023/05/16 05:04:10;;;;;;;;;;;;;;;13.34;38.57;100360.44;4930113;28;98117;-65
2023/05/16 05:06:37;;;;;;;;;;;;;;;13.27;38.65;100368.09;4925343;28;120161;-65
2023/05/16 05:09:04;;;;;;;;;;;;;;;13.24;38.55;100372.19;4950084;28;98327;-65
2023/05/16 05:11:31;;;;;;;;;;;;;;;13.21;38.39;100378.16;4941641;28;99458;-69
2023/05/16 05:13:57;;;;;;;;;;;;;;;13.19;38.82;100380.31;4916364;27;97904;-69
2023/05/16 05:16:23;;;;;;;;;;;;;;;13.17;38.79;100384.44;4941945;27;98123;-69
2023/05/16 05:18:49;;;;;;;;;;;;;;;13.15;38.93;100392.00;4952040;27;98877;-69
2023/05/16 05:21:15;;;;;;;;;;;;;;;13.13;38.94;100394.22;4949732;27;98382;-68
2023/05/16 05:23:41;;;;;;;;;;;;;;;13.16;38.99;100399.84;4942835;27;98202;-67
2023/05/16 05:26:08;;;;;;;;;;;;;;;13.20;39.00;100381.97;4962343;27;98037;-68
2023/05/16 05:28:34;;;;;;;;;;;;;;;13.24;38.90;100393.03;4965062;27;97914;-69
2023/05/16 05:31:00;;;;;;;;;;;;;;;13.29;38.95;100387.59;4948162;27;97992;-65
2023/05/16 05:33:28;;;;;;;;;;;;;;;13.33;38.80;100388.63;4947455;27;97832;-68
2023/05/16 05:35:54;;;;;;;;;;;;;;;13.37;38.72;100386.16;4940603;27;99288;-65
2023/05/16 05:38:20;;;;;;;;;;;;;;;13.36;38.80;100385.34;4948908;27;97989;-68
2023/05/16 05:40:48;;;;;;;;;;;;;;;13.37;38.82;100383.44;4944660;27;98114;-68
2023/05/16 05:43:14;;;;;;;;;;;;;;;13.38;39.01;100385.84;4949502;27;98276;-68
2023/05/16 05:45:41;;;;;;;;;;;;;;;13.46;38.79;100390.63;4950101;27;98076;-65
2023/05/16 05:48:07;;;;;;;;;;;;;;;13.55;38.91;100393.50;4950762;27;97985;-65
2023/05/16 05:50:33;;;;;;;;;;;;;;;13.60;38.76;100392.66;4963175;27;98093;-67
2023/05/16 05:53:00;;;;;;;;;;;;;;;13.62;38.60;100404.78;4945400;28;98256;-65
2023/05/16 05:55:26;;;;;;;;;;;;;;;13.60;38.76;100403.50;4947223;27;98264;-65
2023/05/16 05:57:52;;;;;;;;;;;;;;;13.57;38.74;100406.78;4944855;27;98187;-65
2023/05/16 06:00:18;;;;;;;;;;;;;;;13.54;38.98;100410.84;4947119;27;98442;-70
2023/05/16 06:02:44;;;;;;;;;;;;;;;13.56;38.61;100419.50;4960894;27;98019;-69
2023/05/16 06:05:10;;;;;;;;;;;;;;;13.60;38.89;100411.63;4940999;28;97988;-65
2023/05/16 06:07:36;;;;;;;;;;;;;;;13.65;38.50;100414.25;4928975;27;103165;-69
2023/05/16 06:10:04;;;;;;;;;;;;;;;13.69;38.55;100421.50;4952405;27;98080;-65
2023/05/16 06:12:30;;;;;;;;;;;;;;;13.73;38.66;100413.63;4943525;27;98374;-69
2023/05/16 06:14:56;;;;;;;;;;;;;;;13.79;38.86;100427.91;4939525;28;97963;-65
2023/05/16 06:17:23;;;;;;;;;;;;;;;13.82;38.56;100421.91;4936756;27;97938;-68
2023/05/16 06:19:50;;;;;;;;;;;;;;;13.81;38.51;100429.22;4948796;27;98174;-65
2023/05/16 06:22:16;;;;;;;;;;;;;;;13.83;38.92;100434.34;4935781;27;98145;-65
2023/05/16 06:24:42;;;;;;;;;;;;;;;13.85;38.53;100434.88;4945758;27;98448;-65
2023/05/16 06:27:08;;;;;;;;;;;;;;;13.88;38.66;100445.94;4931796;27;98458;-65
2023/05/16 06:29:35;;;;;;;;;;;;;;;13.90;38.52;100449.16;4943545;27;100087;-69
2023/05/16 06:32:01;;;;;;;;;;;;;;;13.89;38.61;100457.59;4945390;27;99405;-65
2023/05/16 06:34:27;;;;;;;;;;;;;;;13.87;38.56;100448.94;4947242;27;98062;-65
2023/05/16 06:36:54;;;;;;;;;;;;;;;13.85;38.98;100456.56;4948307;27;98154;-65
2023/05/16 06:39:20;;;;;;;;;;;;;;;13.86;38.74;100450.84;4955821;27;98336;-65
2023/05/16 06:41:47;;;;;;;;;;;;;;;13.84;38.79;100457.66;4958349;27;98251;-68
2023/05/16 06:44:13;;;;;;;;;;;;;;;13.81;39.00;100469.06;4941508;27;98172;-68
2023/05/16 06:46:39;;;;;;;;;;;;;;;13.79;38.81;100471.25;4941947;28;98439;-65
2023/05/16 06:49:06;;;;;;;;;;;;;;;13.74;38.96;100480.22;4942284;27;98329;-69
2023/05/16 06:51:32;;;;;;;;;;;;;;;13.71;38.73;100473.47;4945080;27;98177;-65
2023/05/16 06:53:58;;;;;;;;;;;;;;;13.71;38.76;100475.38;4941855;28;98117;-68
2023/05/16 06:56:24;;;;;;;;;;;;;;;13.75;38.87;100479.13;4960933;27;98032;-69
2023/05/16 06:58:51;;;;;;;;;;;;;;;13.73;38.86;100479.44;4963188;27;98065;-69
2023/05/16 07:01:17;;;;;;;;;;;;;;;13.70;38.70;100490.03;4948418;27;98107;-69
2023/05/16 07:03:43;;;;;;;;;;;;;;;13.62;38.90;100499.59;4950371;27;98235;-68
2023/05/16 07:06:09;;;;;;;;;;;;;;;13.57;38.86;100494.22;4943971;27;98251;-65
2023/05/16 07:08:36;;;;;;;;;;;;;;;13.57;38.96;100498.84;4932919;27;98411;-65
2023/05/16 07:11:02;;;;;;;;;;;;;;;13.57;38.94;100506.97;4944913;27;98354;-65
2023/05/16 07:13:28;;;;;;;;;;;;;;;13.54;38.83;100510.25;4961837;27;105711;-65
2023/05/16 07:15:54;;;;;;;;;;;;;;;13.50;38.76;100504.59;4963335;27;98270;-65
2023/05/16 07:18:20;;;;;;;;;;;;;;;13.49;38.83;100508.41;4958749;27;98013;-69
2023/05/16 07:20:47;;;;;;;;;;;;;;;13.47;38.76;100505.16;4928939;27;98189;-69
2023/05/16 07:23:13;;;;;;;;;;;;;;;13.46;38.78;100506.25;4961358;27;98730;-65
2023/05/16 07:25:39;;;;;;;;;;;;;;;13.47;39.00;100513.28;4964155;28;97897;-65
2023/05/16 07:28:05;;;;;;;;;;;;;;;13.47;38.88;100515.97;4945233;28;98165;-65
2023/05/16 07:30:31;;;;;;;;;;;;;;;13.47;38.83;100514.09;4942711;27;97897;-69
2023/05/16 07:32:58;;;;;;;;;;;;;;;13.46;38.96;100511.66;4941659;28;98196;-69
2023/05/16 07:35:24;;;;;;;;;;;;;;;13.45;38.74;100512.78;4963452;27;97857;-69
2023/05/16 07:37:51;;;;;;;;;;;;;;;13.46;38.99;100509.75;4941773;27;98910;-65
2023/05/16 07:40:19;;;;;;;;;;;;;;;13.45;38.78;100504.66;4945794;27;100337;-68
2023/05/16 07:42:45;;;;;;;;;;;;;;;13.48;38.76;100515.72;4932204;27;98096;-68
2023/05/16 07:45:11;;;;;;;;;;;;;;;13.51;38.87;100503.50;4942104;27;98026;-65
2023/05/16 07:47:38;;;;;;;;;;;;;;;13.53;38.71;100505.94;4945365;28;99727;-65
2023/05/16 07:50:04;;;;;;;;;;;;;;;13.57;38.68;100507.78;4941844;27;98059;-65
2023/05/16 07:52:30;;;;;;;;;;;;;;;13.59;38.61;100513.69;4937994;27;98042;-69
2023/05/16 07:54:57;;;;;;;;;;;;;;;13.61;38.62;100514.22;4948104;27;99088;-69
2023/05/16 07:57:23;;;;;;;;;;;;;;;13.64;38.58;100505.53;4966327;27;98664;-64
2023/05/16 07:59:51;;;;;;;;;;;;;;;13.68;38.83;100495.75;4963003;27;98278;-65
2023/05/16 08:02:17;;;;;;;;;;;;;;;13.75;38.67;100496.22;4950767;27;98277;-69
2023/05/16 08:04:43;;;;;;;;;;;;;;;13.78;38.54;100502.94;4946065;28;98066;-65
2023/05/16 08:07:09;;;;;;;;;;;;;;;13.84;38.37;100506.41;4962305;27;116017;-65
2023/05/16 08:09:35;;;;;;;;;;;;;;;13.85;38.54;100499.91;4946520;27;98022;-65
2023/05/16 08:12:02;;;;;;;;;;;;;;;13.84;38.56;100499.09;4947426;27;97900;-65
2023/05/16 08:14:32;;;;;;;;;;;;;;;13.86;38.82;100496.88;4984081;27;98067;-65
2023/05/16 08:16:59;;;;;;;;;;;;;;;13.86;38.72;100507.72;4969059;28;100685;-68
2023/05/16 08:19:25;;;;;;;;;;;;;;;13.87;38.52;100508.53;4980143;27;99526;-70
2023/05/16 08:21:51;;;;;;;;;;;;;;;13.87;38.63;100511.25;4964402;27;98018;-70
2023/05/16 08:24:17;;;;;;;;;;;;;;;13.86;38.44;100507.72;4961559;27;98041;-69
2023/05/16 08:26:44;;;;;;;;;;;;;;;13.88;38.73;100507.47;4964469;27;98329;-70
2023/05/16 08:29:10;;;;;;;;;;;;;;;13.87;38.46;100505.81;4942367;27;97857;-65
2023/05/16 08:31:36;;;;;;;;;;;;;;;13.87;38.66;100514.78;4961458;27;98059;-65
2023/05/16 08:34:05;;;;;;;;;;;;;;;13.86;38.54;100520.47;4949506;27;98291;-66
2023/05/16 08:36:33;;;;;;;;;;;;;;;13.89;38.59;100530.75;4931003;28;98444;-65
2023/05/16 08:38:59;;;;;;;;;;;;;;;13.89;38.63;100533.44;4944111;27;99574;-70
2023/05/16 08:41:26;;;;;;;;;;;;;;;13.87;38.66;100541.03;4946487;27;98061;-69
2023/05/16 08:43:52;;;;;;;;;;;;;;;13.86;38.77;100542.94;4950631;27;98120;-65
2023/05/16 08:46:20;;;;;;;;;;;;;;;13.85;38.92;100554.91;4944851;27;99520;-69
2023/05/16 08:48:46;;;;;;;;;;;;;;;13.87;38.51;100555.44;4928731;28;98129;-69
2023/05/16 08:51:13;;;;;;;;;;;;;;;13.89;38.66;100557.84;4946999;28;98371;-69
2023/05/16 08:53:42;;;;;;;;;;;;;;;13.90;38.49;100556.72;4965424;27;99089;-66
2023/05/16 08:56:08;;;;;;;;;;;;;;;13.93;38.87;100556.97;4962415;28;98072;-68
2023/05/16 08:58:34;;;;;;;;;;;;;;;13.94;38.70;100549.66;4936735;27;99517;-69
2023/05/16 09:01:03;;;;;;;;;;;;;;;14.00;38.87;100554.72;4948440;27;98369;-70
2023/05/16 09:03:29;;;;;;;;;;;;;;;14.02;38.67;100561.75;4978876;27;99070;-69
2023/05/16 09:05:56;;;;;;;;;;;;;;;14.06;38.44;100579.06;4945842;27;98957;-69
2023/05/16 09:08:23;;;;;;;;;;;;;;;14.12;38.45;100576.00;4963744;27;98192;-70
2023/05/16 09:10:49;;;;;;;;;;;;;;;14.16;38.62;100576.25;4947368;27;98733;-70
2023/05/16 09:13:15;;;;;;;;;;;;;;;14.22;38.56;100575.88;4928700;27;98235;-65
2023/05/16 09:15:42;;;;;;;;;;;;;;;14.33;38.21;100578.50;4950946;27;98701;-65
2023/05/16 09:18:12;;;;;;;;;;;;;;;14.38;38.50;100590.09;4948060;27;98022;-65
2023/05/16 09:20:41;;;;;;;;;;;;;;;14.42;38.53;100596.56;4966022;27;99323;-65
2023/05/16 09:23:07;;;;;;;;;;;;;;;14.49;38.07;100593.50;4950723;28;98139;-65
2023/05/16 09:25:34;;;;;;;;;;;;;;;14.54;38.16;100589.91;4946231;28;98197;-65
2023/05/16 09:28:00;;;;;;;;;;;;;;;14.58;38.38;100586.34;4963844;27;99871;-69
2023/05/16 09:30:33;;;;;;;;;;;;;;;14.62;38.17;100583.84;4943761;27;98125;-70
2023/05/16 09:33:00;;;;;;;;;;;;;;;14.65;38.08;100586.78;4961666;28;99742;-69
2023/05/16 09:35:25;;;;;;;;;;;;;;;14.67;38.30;100586.50;4942984;28;98367;-69
2023/05/16 09:37:52;;;;;;;;;;;;;;;14.65;38.42;100581.34;4951338;27;97873;-65
2023/05/16 09:40:21;;;;;;;;;;;;;;;14.64;38.56;100589.78;4940436;27;98180;-69
2023/05/16 09:42:48;;;;;;;;;;;;;;;14.57;38.67;100592.84;4962003;28;98247;-65
2023/05/16 09:45:14;;;;;;;;;;;;;;;14.57;38.58;100598.28;4943984;27;100568;-65
2023/05/16 09:47:45;;;;;;;;;;;;;;;14.55;38.43;100602.41;4945360;27;97931;-65
2023/05/16 09:50:13;;;;;;;;;;;;;;;14.53;38.75;100599.97;4949459;27;99310;-65
2023/05/16 09:52:40;;;;;;;;;;;;;;;14.46;38.42;100608.44;4959527;27;99049;-69
2023/05/16 09:55:07;;;;;;;;;;;;;;;14.45;38.54;100612.22;4942445;28;98387;-65
2023/05/16 09:57:38;;;;;;;;;;;;;;;14.43;38.84;100622.56;4948775;27;98478;-69
2023/05/16 10:00:08;;;;;;;;;;;;;;;14.45;38.76;100630.41;4941589;27;99075;-69
2023/05/16 10:02:35;;;;;;;;;;;;;;;14.45;38.48;100623.06;4965557;27;98074;-65
2023/05/16 10:05:01;;;;;;;;;;;;;;;14.46;38.68;100624.72;4948333;28;98317;-70
2023/05/16 10:07:27;;;;;;;;;;;;;;;14.50;38.50;100619.53;4960324;27;99999;-69
2023/05/16 10:09:54;;;;;;;;;;;;;;;14.55;38.78;100624.09;4945877;27;98203;-69
2023/05/16 10:12:20;;;;;;;;;;;;;;;14.56;38.43;100626.50;4943042;27;98006;-69
2023/05/16 10:14:46;;;;;;;;;;;;;;;14.58;38.59;100628.91;4941040;28;98598;-69
2023/05/16 10:17:14;;;;;;;;;;;;;;;14.58;38.65;100626.22;4943808;27;98138;-69
2023/05/16 10:19:42;;;;;;;;;;;;;;;14.61;38.26;100640.00;4960215;27;106323;-65
2023/05/16 10:22:08;;;;;;;;;;;;;;;14.64;38.38;100641.34;4947783;27;98226;-69
2023/05/16 10:24:46;;;;;;;;;;;;;;;14.64;38.26;100642.16;4943642;27;98067;-69
2023/05/16 10:27:13;;;;;;;;;;;;;;;14.65;38.59;100649.19;4976449;27;98811;-69
2023/05/16 10:29:40;;;;;;;;;;;;;;;14.64;38.63;100639.44;4948756;27;109479;-65
2023/05/16 10:32:06;;;;;;;;;;;;;;;14.65;38.69;100640.22;4946899;27;98126;-65
2023/05/16 10:34:32;;;;;;;;;;;;;;;14.64;38.54;100642.16;4941219;27;98259;-65
2023/05/16 10:36:59;;;;;;;;;;;;;;;14.62;38.76;100641.66;4946977;27;98340;-65
2023/05/16 10:39:25;;;;;;;;;;;;;;;14.61;38.63;100637.28;4963934;27;98107;-65
2023/05/16 10:41:52;;;;;;;;;;;;;;;14.65;38.69;100640.22;4963525;27;98306;-69
2023/05/16 10:44:18;;;;;;;;;;;;;;;14.76;38.62;100641.72;4941143;27;98252;-69
2023/05/16 10:46:45;;;;;;;;;;;;;;;14.81;38.59;100643.56;4941821;27;98254;-69
2023/05/16 10:49:21;;;;;;;;;;;;;;;14.80;38.43;100640.03;4946842;27;99688;-65
2023/05/16 10:52:04;;;;;;;;;;;;;;;14.81;38.56;100640.84;4943760;27;98313;-65
2023/05/16 10:54:40;;;;;;;;;;;;;;;14.86;38.10;100638.09;4933506;28;99666;-69
2023/05/16 10:57:24;;;;;;;;;;;;;;;14.92;38.38;100640.44;4945109;27;98079;-65
2023/05/16 10:59:51;;;;;;;;;;;;;;;14.92;38.22;100640.44;4948056;27;107013;-65
2023/05/16 11:02:22;;;;;;;;;;;;;;;14.99;38.48;100629.22;4946451;28;97997;-69
2023/05/16 11:04:49;;;;;;;;;;;;;;;15.05;38.42;100629.94;4941822;27;98620;-66
2023/05/16 11:07:16;;;;;;;;;;;;;;;15.07;38.25;100635.91;4941183;27;98413;-69
2023/05/16 11:09:52;;;;;;;;;;;;;;;15.04;38.17;100629.13;4942956;27;99331;-69
2023/05/16 11:12:20;;;;;;;;;;;;;;;15.05;38.25;100632.66;4946447;27;98431;-66
2023/05/16 11:14:50;;;;;;;;;;;;;;;15.04;38.38;100640.00;4949638;27;99400;-69
2023/05/16 11:17:23;;;;;;;;;;;;;;;14.98;38.34;100628.41;4960337;27;99944;-65
2023/05/16 11:19:58;;;;;;;;;;;;;;;14.95;38.60;100636.34;4960072;27;99678;-65
2023/05/16 11:22:25;;;;;;;;;;;;;;;14.97;38.56;100644.97;4957762;28;98256;-66
2023/05/16 11:25:03;;;;;;;;;;;;;;;15.03;38.58;100643.81;4978420;27;99451;-65
2023/05/16 11:27:30;;;;;;;;;;;;;;;15.11;38.04;100642.34;4964428;27;97930;-65
2023/05/16 11:30:05;;;;;;;;;;;;;;;15.19;38.08;100641.69;4962818;27;99893;-69
2023/05/16 11:32:34;;;;;;;;;;;;;;;15.58;37.89;100637.84;4975112;28;98182;-66
2023/05/16 11:35:00;;;;;;;;;;;;;;;15.98;37.47;100632.84;4976489;27;99943;-69
2023/05/16 11:37:28;;;;;;;;;;;;;;;16.34;37.42;100633.00;4947768;27;97982;-65
2023/05/16 11:40:02;;;;;;;;;;;;;;;16.60;37.11;100623.22;4945355;27;98323;-66
2023/05/16 11:42:30;;;;;;;;;;;;;;;16.90;36.77;100616.38;4963320;27;98090;-65
2023/05/16 11:45:15;;;;;;;;;;;;;;;17.12;37.04;100618.31;4946334;27;98213;-66
2023/05/16 11:47:43;;;;;;;;;;;;;;;17.23;37.06;100612.63;4950102;27;103946;-66
2023/05/16 11:50:15;;;;;;;;;;;;;;;17.31;36.94;100611.91;4961309;27;98079;-65
2023/05/16 11:52:52;;;;;;;;;;;;;;;17.40;37.01;100615.47;4961228;28;98183;-65
2023/05/16 11:55:22;;;;;;;;;;;;;;;17.38;37.10;100612.28;4963528;27;98350;-66
2023/05/16 11:57:48;;;;;;;;;;;;;;;17.30;37.28;100605.66;4949377;27;98808;-69
2023/05/16 12:00:16;;;;;;;;;;;;;;;17.23;37.25;100605.25;4958448;27;97863;-65
2023/05/16 12:02:46;;;;;;;;;;;;;;;17.13;37.39;100609.03;4942881;27;97986;-69
2023/05/16 12:05:13;;;;;;;;;;;;;;;17.06;37.49;100603.22;4944052;27;98117;-66
2023/05/16 12:07:40;;;;;;;;;;;;;;;17.00;37.68;100600.91;4939794;27;97911;-66
2023/05/16 12:10:08;;;;;;;;;;;;;;;17.02;37.53;100604.94;4945098;28;98757;-65
2023/05/16 12:12:35;;;;;;;;;;;;;;;16.98;37.55;100605.84;4960901;27;98222;-65
2023/05/16 12:15:02;;;;;;;;;;;;;;;16.88;37.74;100615.84;4941368;27;98559;-66
2023/05/16 12:17:29;;;;;;;;;;;;;;;16.80;37.71;100622.00;4941913;27;97910;-66
2023/05/16 12:19:55;;;;;;;;;;;;;;;16.80;37.89;100616.56;4964857;27;98367;-69
2023/05/16 12:22:22;;;;;;;;;;;;;;;16.82;37.73;100608.09;4939188;27;98019;-65
2023/05/16 12:24:48;;;;;;;;;;;;;;;16.80;37.61;100610.31;4943066;27;98491;-70
2023/05/16 12:27:22;;;;;;;;;;;;;;;16.77;37.86;100605.47;4943166;27;98107;-70
2023/05/16 12:29:48;;;;;;;;;;;;;;;16.81;37.74;100606.47;4927865;28;98218;-66
2023/05/16 12:32:18;;;;;;;;;;;;;;;16.87;37.77;100606.06;4945104;27;99417;-70
2023/05/16 12:34:51;;;;;;;;;;;;;;;16.88;37.81;100601.44;4958812;27;97915;-66
2023/05/16 12:37:17;;;;;;;;;;;;;;;16.85;37.79;100604.75;4945972;28;98111;-65